• Join FlightAware (Why Join?)
  • Login
  • US Flag 
02:54PM EDT


 

Airport Tracker/Info


-or-


 

Live Flight TrackerFlight Track Log ✈ EJA922 ✈ 07-Oct-2013 ✈ KMDW - KHOU

Flight Track Log - Related Links

Times and Time Zones

All times are in EDT time to prevent confusion due to time zone crossing. See the EJA922 flight status page for this flight to view local times or setup timezone preferences in your user account.

Time Position Orientation Groundspeed Altitude Reporting Facility
EDT Latitude Longitude Course Direction KTS MPH feet Rate Location/Type
12:40PM 41.7667 -87.7667 217° Southwest 175 201 2,000  Level Chicago TRACON
12:41PM 41.7167 -87.8167 217° Southwest 198 228 3,100 2,100 Climbing Chicago TRACON
12:42PM 41.6667 -87.8500 206° Southwest 260 299 6,300 3,420 Climbing Chicago TRACON
12:43PM 41.5703 -87.9186 208° Southwest 281 323 11,000 3,420 Climbing Chicago Center
12:44PM 41.4972 -87.9697 208° Southwest 294 338 14,400 2,700 Climbing Chicago Center
12:45PM 41.4142 -88.0267 207° Southwest 319 367 16,700 1,920 Climbing Chicago Center
12:46PM 41.3144 -88.0856 204° Southwest 365 420 18,400 1,500 Climbing Chicago Center
12:47PM 41.2106 -88.1511 205° Southwest 407 468 19,800 1,380 Climbing Chicago Center
12:48PM 41.1014 -88.2197 205° Southwest 431 496 21,300 1,440 Climbing Chicago Center
12:49PM 40.9892 -88.2894 205° Southwest 443 510 22,800 1,440 Climbing Chicago Center
12:50PM 40.8753 -88.3578 204° Southwest 449 517 24,300 1,560 Climbing Chicago Center
12:51PM 40.7333 -88.4458 205° Southwest 465 535 26,100 1,560 Climbing Chicago Center
12:52PM 40.6128 -88.5194 205° Southwest 474 545 27,600 1,440 Climbing Chicago Center
12:53PM 40.4914 -88.5928 205° Southwest 481 554 29,100 1,380 Climbing Chicago Center
12:54PM 40.3642 -88.6714 205° Southwest 490 564 30,500 1,260 Climbing Chicago Center
12:55PM 40.2369 -88.7478 205° Southwest 499 574 31,800 1,140 Climbing Chicago Center
12:56PM 40.1067 -88.8250 204° Southwest 509 586 32,900 1,920 Climbing Chicago Center
12:57PM 39.9783 -88.9014 205° Southwest 506 582 35,800 2,100 Climbing Chicago Center
12:58PM 39.8544 -88.9758 205° Southwest 492 566 37,300 1,260 Climbing Chicago Center
12:59PM 39.6997 -89.0678 205° Southwest 506 582 38,500 840 Climbing Chicago Center
01:00PM 39.6197 -89.1172 205° Southwest 510 587 38,900 720 Climbing Kansas City Center
01:01PM 39.4581 -89.2119 204° Southwest 525 604 39,900 480 Climbing Kansas City Center
01:02PM 39.3414 -89.2817 205° Southwest 526 605 40,000  Climbing Kansas City Center
01:03PM 39.2061 -89.3594 204° Southwest 529 609 40,000  Level Kansas City Center
01:04PM 39.0428 -89.4550 204° Southwest 531 611 40,000  Level Kansas City Center
01:05PM 38.9081 -89.5322 204° Southwest 531 611 40,000  Level Kansas City Center
01:06PM 38.7633 -89.6158 204° Southwest 529 609 40,000  Level Kansas City Center
01:07PM 38.6369 -89.6886 204° Southwest 536 617 40,000  Level Kansas City Center
01:08PM 38.4997 -89.7661 204° Southwest 535 616 40,000 420 Level Kansas City Center
01:10PM 38.3642 -89.8439 204° Southwest 532 612 40,900 1,080 Climbing Kansas City Center
01:11PM 38.2350 -89.9164 204° Southwest 515 593 42,300 960 Climbing Kansas City Center
01:12PM 38.0828 -90.0028 204° Southwest 490 564 43,000 300 Climbing Kansas City Center
01:13PM 37.9617 -90.0717 204° Southwest 489 563 43,000  Level Kansas City Center
01:14PM 37.8364 -90.1428 204° Southwest 492 566 43,000  Level Kansas City Center
01:15PM 37.7103 -90.2133 204° Southwest 493 567 43,000  Level Kansas City Center
01:16PM 37.5822 -90.2792 202° Southwest 496 571 43,000  Level Kansas City Center
01:17PM 37.4525 -90.3381 200° South 497 572 43,000  Level Kansas City Center
01:18PM 37.3133 -90.4036 201° Southwest 497 572 43,000  Level Kansas City Center
01:19PM 37.1825 -90.4636 200° South 500 575 43,000  Level Kansas City Center
01:20PM 37.0272 -90.5364 201° Southwest 499 574 43,000  Level Kansas City Center
01:21PM 36.8983 -90.5947 200° South 496 571 43,000  Level Kansas City Center
01:22PM 36.7669 -90.6547 200° South 499 574 43,000  Level Kansas City Center
01:23PM 36.6061 -90.7344 202° Southwest 511 588 43,000  Level Memphis Center
01:24PM 36.4706 -90.7956 200° South 511 588 43,000  Level Memphis Center
01:25PM 36.3369 -90.8542 199° South 511 588 43,000  Level Memphis Center
01:26PM 36.2011 -90.9178 201° Southwest 511 588 43,000  Level Memphis Center
01:27PM 36.0717 -90.9886 204° Southwest 511 588 43,000  Level Memphis Center
01:28PM 35.9564 -91.0903 216° Southwest 506 582 43,000  Level Memphis Center
01:29PM 35.8369 -91.1892 214° Southwest 512 589 43,000  Level Memphis Center
01:30PM 35.7236 -91.2903 216° Southwest 518 596 43,000  Level Memphis Center
01:31PM 35.6081 -91.3939 216° Southwest 518 596 43,000  Level Memphis Center
01:32PM 35.5072 -91.4792 215° Southwest 510 587 43,000  Level Memphis Center
01:33PM 35.3894 -91.5819 215° Southwest 515 593 43,000  Level Memphis Center
01:34PM 35.2694 -91.6794 214° Southwest 520 598 43,000  Level Memphis Center
01:35PM 35.1411 -91.7892 215° Southwest 525 604 43,000  Level Memphis Center
01:36PM 35.0253 -91.8886 215° Southwest 525 604 43,000  Level Memphis Center
01:37PM 34.9069 -91.9878 215° Southwest 525 604 43,000  Level Memphis Center
01:38PM 34.7911 -92.0867 215° Southwest 525 604 43,000  Level Memphis Center
01:39PM 34.6644 -92.1803 211° Southwest 525 604 43,000  Level Memphis Center
01:40PM 34.5222 -92.2125 191° South 504 580 43,000 -60 Level Memphis Center
01:41PM 34.3778 -92.2394 189° South 519 597 42,900 -600 Descending Memphis Center
01:42PM 34.2311 -92.2664 189° South 530 610 41,900 -1,020 Descending Memphis Center
01:43PM 34.0931 -92.2886 188° South 525 604 40,900 -960 Descending Memphis Center
01:44PM 33.9717 -92.3158 191° South 505 581 40,000 -300 Descending Memphis Center
01:46PM 33.6486 -92.3733 188° South 513 590 40,000  Level Fort Worth Center
01:47PM 33.5017 -92.4017 189° South 532 612 40,000  Level Fort Worth Center
01:48PM 33.3564 -92.4250 188° South 532 612 40,000  Level Fort Worth Center
01:49PM 33.2094 -92.4531 189° South 538 619 40,000  Level Fort Worth Center
01:50PM 33.0622 -92.4786 188° South 543 625 40,000  Level Fort Worth Center
01:51PM 32.9211 -92.5036 188° South 531 611 40,000  Level Fort Worth Center
01:53PM 32.6625 -92.5550 189° South 533 613 40,000  Level Houston Center
01:54PM 32.5072 -92.5825 188° South 536 617 40,000  Level Houston Center
01:55PM 32.3594 -92.6094 189° South 539 620 40,000  Level Houston Center
01:56PM 32.1817 -92.6411 189° South 538 619 40,000  Level Houston Center
01:57PM 32.0442 -92.6992 200° South 537 618 40,000  Level Houston Center
01:58PM 31.9406 -92.8192 225° Southwest 524 603 40,000  Level Houston Center
01:59PM 31.8411 -92.9381 225° Southwest 514 592 40,000  Level Houston Center
02:00PM 31.7419 -93.0575 226° Southwest 514 592 40,000  Level Houston Center
02:01PM 31.6417 -93.1758 225° Southwest 512 589 40,000  Level Houston Center
02:02PM 31.5314 -93.3094 226° Southwest 512 589 40,000  Level Houston Center
02:03PM 31.4300 -93.4267 225° Southwest 515 593 40,000 -60 Level Houston Center
02:04PM 31.3306 -93.5444 225° Southwest 513 590 39,900 -1,260 Descending Houston Center
02:05PM 31.2219 -93.6714 225° Southwest 511 588 37,400 -2,460 Descending Houston Center
02:06PM 31.1206 -93.7897 225° Southwest 517 595 34,900 -2,760 Descending Houston Center
02:07PM 31.0061 -93.9244 225° Southwest 519 597 31,700 -3,180 Descending Houston Center
02:09PM 30.8936 -94.0558 225° Southwest 533 613 28,400 -3,000 Descending Houston Center
02:10PM 30.7914 -94.1744 225° Southwest 525 604 25,500 -2,820 Descending Houston Center
02:11PM 30.6925 -94.2889 225° Southwest 512 589 22,600 -2,940 Descending Houston Center
02:11PM 30.6119 -94.3828 225° Southwest 484 557 20,300 -2,640 Descending Houston Center
02:12PM 30.5978 -94.3981 223° Southwest 495 570 19,900 -2,400 Descending Houston Center
02:13PM 30.4819 -94.5358 226° Southwest 459 528 16,900 -2,460 Descending Houston Center
02:14PM 30.4158 -94.6403 234° Southwest 449 517 14,900 -2,280 Descending Houston Center
02:14PM 30.4092 -94.6519 236° Southwest 436 502 14,600 -1,980 Descending Houston Center
02:15PM 30.3453 -94.7497 233° Southwest 432 497 12,900 -1,980 Descending Houston Center
02:15PM 30.3339 -94.7658 231° Southwest 413 475 12,600 -2,100 Descending Houston Center
02:16PM 30.2625 -94.8742 233° Southwest 420 483 10,600 -1,380 Descending Houston Center
02:17PM 30.2003 -94.9736 234° Southwest 414 476 10,000 -660 Descending Houston Center
02:17PM 30.2081 -94.9639 47° Northeast 417 480 10,000  Level Houston Center
02:18PM 30.1358 -95.0664 231° Southwest 414 476 10,000 60 Level Houston Center
02:18PM 30.1017 -95.0850 205° Southwest 417 480 10,100  Climbing Houston Center
02:19PM 30.0189 -95.1219 201° Southwest 416 479 10,000 -120 Descending Houston Center
02:19PM 30.0278 -95.1167 27° Northeast 419 482 10,000  Level Houston Center
02:20PM 29.8997 -95.1728 201° Southwest 419 482 10,000  Level Houston Center
02:20PM 29.8989 -95.1725 164° South 417 480 10,000  Level Houston Center
02:21PM 29.7981 -95.2147 200° South 393 452 10,000  Level Houston Center
02:21PM 29.7925 -95.2172 201° Southwest 351 404 10,000 -1,500 Level Houston Center
02:22PM 29.7142 -95.2339 190° South 302 348 8,600 -1,500 Descending Houston Center
02:22PM 29.7153 -95.2339 360° North 317 365 8,500 -1,860 Descending Houston Center
02:23PM 29.6094 -95.2369 181° South 299 344 6,400 -1,380 Descending Houston Center
02:24PM 29.5442 -95.2581 196° South 279 321 5,700 -900 Descending Houston Center
02:24PM 29.5367 -95.2650 219° Southwest 269 310 5,500 -1,800 Descending Houston Center
02:25PM 29.4814 -95.3269 224° Southwest 275 316 3,700 -1,320 Descending Houston Center
02:26PM 29.4747 -95.3892 263° West 256 295 3,000 -720 Descending Houston Center
02:26PM 29.4778 -95.4017 286° West 214 246 3,000 -540 Level Houston Center
02:27PM 29.5156 -95.4261 331° Northwest 185 213 2,500 -420 Descending Houston Center
02:27PM 29.5100 -95.4275 192° South 217 250 2,600 -480 Climbing Houston Center
02:28PM 29.5467 -95.3878 43° Northeast 195 224 2,000 -480 Descending Houston Center
02:29PM 29.5794 -95.3511 44° Northeast 177 204 1,700 -420 Descending Houston Center
02:29PM 29.5839 -95.3458 46° Northeast 150 173 1,600 -780 Descending Houston Center
02:30PM 29.6092 -95.3189 43° Northeast 139 160 900 -720 Descending Houston Center
02:31PM 29.6347 -95.2908 44° Northeast 129 148 200 -420 Descending Houston Center
02:32PM 29.6603 -95.2628 44° Northeast 129 148 100 -120 Descending Houston Center